Rapid City Regional Airport

Airport
ICAO code: 
KRAP
IATA Code: 
RAP
Summary
ICAO Region: 
NAM
Territory: 
Location: 
Rapid City, South Dakota, South Dakota
Serving: 
Rapid City
Elevation: 
3204 ft
Coordinates: 
Aerial View: 
44° 2' 16.886" N, 103° 3' 39.271" W
Airport CFIT: 
Altimeter Temperature Error Correction
Airport RE: 
Hot and High Operations
Metar
Observation
KRAP 090052Z 02006KT 10SM CLR 04/M06 A2941 RMK AO2 SLP983 T00441056
Station
Rapid City, Rapid City Regional Airport
Date/Time
2021-12-09 00:52:00
Wind direction
20°
Wind speed
06 kts
Lowest cloud amount
n/a
Temperature
4.4°C
Dew point
-5.6°C
Humidity
48%
Weather condition
n/a

Rapid City Regional Airport is a public use airport located 15 km southeast of the central business district of Rapid City, in Pennington County, South Dakota.

Climatology

Semi-arid steppe climate (Köppen climate classification BSk).

Runways

Designator Length Width Surface Rops
5/23 1098 23 ASP Yes/Yes
14/32 2652 46 CON Yes/Yes
Airport map: 
Aerial View: 

Accidents and Serious Incidents at or in the vicinity of KRAP

SKYbrary Partners:

Safety knowledge contributed by: